createdAt,value
2023-04-16T00:02:15.243Z,8.25
2023-04-16T00:04:42.288Z,8.23
2023-04-16T00:07:09.127Z,8.24
2023-04-16T00:09:35.992Z,8.23
2023-04-16T00:12:03.666Z,8.26
2023-04-16T00:14:30.588Z,8.24
2023-04-16T00:16:57.446Z,8.22
2023-04-16T00:19:24.305Z,8.18
2023-04-16T00:21:51.201Z,8.13
2023-04-16T00:24:18.073Z,8.12
2023-04-16T00:26:46.433Z,8.17
2023-04-16T00:29:13.280Z,8.17
2023-04-16T00:31:40.095Z,8.17
2023-04-16T00:34:06.894Z,8.15
2023-04-16T00:36:34.030Z,8.13
2023-04-16T00:39:00.896Z,8.12
2023-04-16T00:41:27.772Z,8.10
2023-04-16T00:43:54.595Z,8.10
2023-04-16T00:46:23.988Z,8.07
2023-04-16T00:48:54.210Z,8.04
2023-04-16T00:51:21.656Z,8.01
2023-04-16T00:53:49.115Z,8.00
2023-04-16T00:56:17.506Z,8.03
2023-04-16T00:58:45.204Z,8.05
2023-04-16T01:01:14.474Z,8.04
2023-04-16T01:03:48.448Z,8.02
2023-04-16T01:06:18.223Z,8.03
2023-04-16T01:08:47.171Z,8.03
2023-04-16T01:11:16.046Z,8.04
2023-04-16T01:13:43.192Z,8.08
2023-04-16T01:16:12.804Z,8.08
2023-04-16T01:18:40.070Z,8.07
2023-04-16T01:21:07.725Z,8.10
2023-04-16T01:23:34.746Z,8.09
2023-04-16T01:26:02.518Z,8.13
2023-04-16T01:28:29.390Z,8.13
2023-04-16T01:30:56.583Z,8.14
2023-04-16T01:33:49.915Z,8.16
2023-04-16T01:36:16.807Z,8.15
2023-04-16T01:38:45.397Z,8.15
2023-04-16T01:41:12.189Z,8.18
2023-04-16T01:43:40.306Z,8.24
2023-04-16T01:46:31.026Z,8.30
2023-04-16T01:48:58.493Z,8.28
2023-04-16T01:51:25.724Z,8.27
2023-04-16T01:53:52.670Z,8.26
2023-04-16T01:56:19.560Z,8.26
2023-04-16T01:58:47.418Z,8.25
2023-04-16T02:01:16.393Z,8.29
2023-04-16T02:03:44.507Z,8.31
2023-04-16T02:06:11.582Z,8.29
2023-04-16T02:08:38.461Z,8.28
2023-04-16T02:11:05.350Z,8.35
2023-04-16T02:13:32.751Z,8.32
2023-04-16T02:15:59.673Z,8.35
2023-04-16T02:18:55.989Z,8.33
2023-04-16T02:21:24.291Z,8.29
2023-04-16T02:23:51.941Z,8.28
2023-04-16T02:26:23.938Z,8.29
2023-04-16T02:28:51.070Z,8.30
2023-04-16T02:31:21.791Z,8.29
2023-04-16T02:33:48.842Z,8.28
2023-04-16T02:36:15.717Z,8.25
2023-04-16T02:38:42.536Z,8.26
2023-04-16T02:41:09.370Z,8.25
2023-04-16T02:43:36.255Z,8.26
2023-04-16T02:46:04.603Z,8.27
2023-04-16T02:48:31.579Z,8.23
2023-04-16T02:50:59.120Z,8.27
2023-04-16T02:53:26.231Z,8.32
2023-04-16T02:55:54.942Z,8.30
2023-04-16T02:58:24.211Z,8.32
2023-04-16T03:00:52.239Z,8.32
2023-04-16T03:03:19.878Z,8.30
2023-04-16T03:05:47.350Z,8.32
2023-04-16T03:08:14.495Z,8.32
2023-04-16T03:10:41.763Z,8.31
2023-04-16T03:13:08.532Z,8.31
2023-04-16T03:15:35.327Z,8.34
2023-04-16T03:18:02.379Z,8.36
2023-04-16T03:20:29.341Z,8.35
2023-04-16T03:22:57.245Z,8.32
2023-04-16T03:25:24.099Z,8.32
2023-04-16T03:27:51.409Z,8.33
2023-04-16T03:30:18.667Z,8.34
2023-04-16T03:32:45.586Z,8.34
2023-04-16T03:35:12.855Z,8.38
2023-04-16T03:37:39.820Z,8.36
2023-04-16T03:40:08.350Z,8.39
2023-04-16T03:42:36.692Z,8.34
2023-04-16T03:45:04.218Z,8.35
2023-04-16T03:47:32.240Z,8.31
2023-04-16T03:50:02.308Z,8.27
2023-04-16T03:52:29.192Z,8.27
2023-04-16T03:54:57.087Z,8.28
2023-04-16T03:57:27.000Z,8.27
2023-04-16T03:59:57.929Z,8.28
2023-04-16T04:02:27.695Z,8.28
2023-04-16T04:04:54.741Z,8.34
2023-04-16T04:07:21.670Z,8.36
2023-04-16T04:09:48.554Z,8.34
2023-04-16T04:12:15.850Z,8.29
2023-04-16T04:14:44.161Z,8.28
2023-04-16T04:17:11.040Z,8.28
2023-04-16T04:19:42.294Z,8.27
2023-04-16T04:22:14.367Z,8.31
2023-04-16T04:24:41.262Z,8.33
2023-04-16T04:27:08.131Z,8.34
2023-04-16T04:29:35.029Z,8.31
2023-04-16T04:32:02.071Z,8.26
2023-04-16T04:34:29.104Z,8.27
2023-04-16T04:36:59.481Z,8.29
2023-04-16T04:39:27.828Z,8.30
2023-04-16T04:41:54.821Z,8.32
2023-04-16T04:44:21.868Z,8.33
2023-04-16T04:46:48.721Z,8.30
2023-04-16T04:49:15.796Z,8.28
2023-04-16T04:51:42.591Z,8.29
2023-04-16T04:54:09.650Z,8.33
2023-04-16T04:56:36.594Z,8.36
2023-04-16T04:59:03.470Z,8.38
2023-04-16T05:01:30.508Z,8.34
2023-04-16T05:03:57.559Z,8.34
2023-04-16T05:06:24.584Z,8.36
2023-04-16T05:08:51.375Z,8.36
2023-04-16T05:11:18.201Z,8.32
2023-04-16T05:13:45.013Z,8.31
2023-04-16T05:16:11.873Z,8.32
2023-04-16T05:18:38.684Z,8.33
2023-04-16T05:21:05.859Z,8.36
2023-04-16T05:23:32.760Z,8.37
2023-04-16T05:25:59.610Z,8.36
2023-04-16T05:28:26.460Z,8.35
2023-04-16T05:30:53.319Z,8.33
2023-04-16T05:33:20.915Z,8.32
2023-04-16T05:35:47.690Z,8.33
2023-04-16T05:38:14.526Z,8.37
2023-04-16T05:40:41.264Z,8.41
2023-04-16T05:43:08.064Z,8.44
2023-04-16T05:45:39.611Z,8.44
2023-04-16T05:48:10.540Z,8.36
2023-04-16T05:50:38.043Z,8.33
2023-04-16T05:53:07.856Z,8.35
2023-04-16T05:55:37.165Z,8.41
2023-04-16T05:58:06.645Z,8.43
2023-04-16T06:00:33.774Z,8.46
2023-04-16T06:03:01.943Z,8.46
2023-04-16T06:05:29.677Z,8.48
2023-04-16T06:07:56.807Z,8.51
2023-04-16T06:10:23.705Z,8.51
2023-04-16T06:12:50.531Z,8.54
2023-04-16T06:15:17.532Z,8.57
2023-04-16T06:17:44.356Z,8.58
2023-04-16T06:20:12.370Z,8.57
2023-04-16T06:22:39.254Z,8.57
2023-04-16T06:25:06.926Z,8.62
2023-04-16T06:27:33.994Z,8.59
2023-04-16T06:30:00.918Z,8.60
2023-04-16T06:32:27.945Z,8.61
2023-04-16T06:34:56.297Z,8.57
2023-04-16T06:37:23.104Z,8.56
2023-04-16T06:39:49.951Z,8.56
2023-04-16T06:42:16.832Z,8.61
2023-04-16T06:44:43.709Z,8.60
2023-04-16T06:47:10.793Z,8.54
2023-04-16T06:49:38.996Z,8.54
2023-04-16T06:52:06.305Z,8.54
2023-04-16T06:54:33.412Z,8.54
2023-04-16T06:57:00.259Z,8.58
2023-04-16T06:59:27.096Z,8.59
2023-04-16T07:01:54.136Z,8.64
2023-04-16T07:04:21.796Z,8.66
2023-04-16T07:06:48.661Z,8.68
2023-04-16T07:09:15.748Z,8.71
2023-04-16T07:11:42.636Z,8.76
2023-04-16T07:14:09.587Z,8.76
2023-04-16T07:16:37.894Z,8.76
2023-04-16T07:19:05.303Z,8.77
2023-04-16T07:21:32.458Z,8.83
2023-04-16T07:23:59.300Z,8.87
2023-04-16T07:26:26.237Z,8.90
2023-04-16T07:28:53.061Z,8.89
2023-04-16T07:31:19.983Z,8.87
2023-04-16T07:33:46.925Z,8.89
2023-04-16T07:36:14.130Z,8.92
2023-04-16T07:38:41.089Z,8.96
2023-04-16T07:41:08.367Z,8.99
2023-04-16T07:43:35.577Z,9.00
2023-04-16T07:46:02.572Z,8.99
2023-04-16T07:48:30.819Z,9.01
2023-04-16T07:50:58.033Z,9.01
2023-04-16T07:53:24.882Z,9.05
2023-04-16T07:55:51.816Z,9.10
2023-04-16T07:58:18.733Z,9.06
2023-04-16T08:00:45.710Z,9.08
2023-04-16T08:03:12.675Z,9.11
2023-04-16T08:05:39.813Z,9.14
2023-04-16T08:08:08.012Z,9.18
2023-04-16T08:10:34.834Z,9.18
2023-04-16T08:13:02.106Z,9.18
2023-04-16T08:15:29.328Z,9.21
2023-04-16T08:17:56.758Z,9.22
2023-04-16T08:20:23.694Z,9.25
2023-04-16T08:22:50.540Z,9.27
2023-04-16T08:25:17.443Z,9.28
2023-04-16T08:27:44.284Z,9.31
2023-04-16T08:30:11.252Z,9.30
2023-04-16T08:32:38.536Z,9.31
2023-04-16T08:35:06.009Z,9.36
2023-04-16T08:37:32.889Z,9.42
2023-04-16T08:39:59.665Z,9.50
2023-04-16T08:43:03.726Z,9.59
2023-04-16T08:45:34.851Z,9.61
2023-04-16T08:48:05.029Z,9.59
2023-04-16T08:50:34.813Z,9.63
2023-04-16T08:53:06.997Z,9.68
2023-04-16T08:55:46.916Z,9.76
2023-04-16T08:58:18.783Z,9.76
2023-04-16T09:00:46.479Z,9.77
2023-04-16T09:03:13.894Z,9.78
2023-04-16T09:05:42.701Z,9.74
2023-04-16T09:08:09.640Z,9.70
2023-04-16T09:10:36.733Z,9.70
2023-04-16T09:13:03.623Z,9.72
2023-04-16T09:15:33.422Z,9.74
2023-04-16T09:18:01.977Z,9.80
2023-04-16T09:20:28.995Z,9.92
2023-04-16T09:22:57.084Z,9.91
2023-04-16T09:25:25.648Z,9.89
2023-04-16T09:27:52.663Z,9.89
2023-04-16T09:30:23.868Z,9.95
2023-04-16T09:32:53.366Z,10.01
2023-04-16T09:35:21.473Z,10.03
2023-04-16T09:37:57.627Z,10.06
2023-04-16T09:40:27.311Z,10.12
2023-04-16T09:42:58.549Z,10.14
2023-04-16T09:45:25.596Z,10.16
2023-04-16T09:47:52.566Z,10.19
2023-04-16T09:50:20.616Z,10.23
2023-04-16T09:52:51.672Z,10.31
2023-04-16T09:55:27.088Z,10.38
2023-04-16T09:58:01.068Z,10.41
2023-04-16T10:00:31.575Z,10.44
2023-04-16T10:03:08.314Z,10.45
2023-04-16T10:05:35.313Z,10.49
2023-04-16T10:08:02.403Z,10.54
2023-04-16T10:10:30.540Z,10.60
2023-04-16T10:12:58.088Z,10.70
2023-04-16T10:15:25.744Z,10.75
2023-04-16T10:17:54.102Z,10.73
2023-04-16T10:20:22.757Z,10.75
2023-04-16T10:22:50.040Z,10.83
2023-04-16T10:25:17.911Z,10.95
2023-04-16T10:27:45.891Z,11.14
2023-04-16T10:30:15.671Z,11.22
2023-04-16T10:32:43.939Z,11.25
2023-04-16T10:35:19.074Z,11.27
2023-04-16T10:37:47.455Z,11.27
2023-04-16T10:40:27.899Z,11.34
2023-04-16T10:42:58.235Z,11.43
2023-04-16T10:45:38.010Z,11.45
2023-04-16T10:48:10.028Z,11.51
2023-04-16T10:50:37.942Z,11.55
2023-04-16T10:53:23.509Z,11.59
2023-04-16T10:56:02.979Z,11.69
2023-04-16T10:58:32.072Z,11.93
2023-04-16T11:01:16.871Z,12.10
2023-04-16T11:03:47.316Z,12.12
2023-04-16T11:06:18.254Z,12.02
2023-04-16T11:08:54.524Z,11.97
2023-04-16T11:11:22.820Z,12.03
2023-04-16T11:13:50.023Z,12.09
2023-04-16T11:16:17.484Z,12.18
2023-04-16T11:18:51.296Z,12.20
2023-04-16T11:21:20.200Z,12.18
2023-04-16T11:23:52.360Z,12.18
2023-04-16T11:26:30.505Z,12.29
2023-04-16T11:28:57.727Z,12.51
2023-04-16T11:31:24.905Z,12.73
2023-04-16T11:33:51.924Z,12.88
2023-04-16T11:36:18.985Z,12.87
2023-04-16T11:38:47.036Z,12.80
2023-04-16T11:41:21.861Z,12.68
2023-04-16T11:43:48.807Z,12.56
2023-04-16T11:46:27.442Z,12.54
2023-04-16T11:48:57.980Z,12.53
2023-04-16T11:51:24.879Z,12.45
2023-04-16T11:53:54.113Z,12.33
2023-04-16T11:56:36.288Z,12.31
2023-04-16T11:59:15.559Z,12.44
2023-04-16T12:01:47.758Z,12.57
2023-04-16T12:04:20.113Z,12.73
2023-04-16T12:07:06.057Z,12.80
2023-04-16T12:09:33.055Z,12.81
2023-04-16T12:11:59.865Z,12.79
2023-04-16T12:14:27.087Z,12.82
2023-04-16T12:16:54.035Z,12.91
2023-04-16T12:19:21.480Z,12.93
2023-04-16T12:21:51.151Z,13.02
2023-04-16T12:24:24.190Z,13.14
2023-04-16T12:27:03.088Z,13.22
2023-04-16T12:29:31.390Z,13.29
2023-04-16T12:31:58.253Z,13.38
2023-04-16T12:34:46.587Z,13.38
2023-04-16T12:37:14.898Z,13.27
2023-04-16T12:39:45.513Z,13.15
2023-04-16T12:42:14.786Z,12.96
2023-04-16T12:44:41.636Z,12.89
2023-04-16T12:47:08.448Z,12.83
2023-04-16T12:49:37.117Z,12.68
2023-04-16T12:52:04.640Z,12.55
2023-04-16T12:54:32.285Z,12.45
2023-04-16T12:56:59.148Z,12.37
2023-04-16T12:59:25.980Z,12.21
2023-04-16T13:01:52.970Z,12.11
2023-04-16T13:04:20.015Z,12.07
2023-04-16T13:06:47.541Z,11.99
2023-04-16T13:09:14.354Z,11.98
2023-04-16T13:11:41.134Z,12.04
2023-04-16T13:14:07.922Z,12.11
2023-04-16T13:16:34.760Z,12.15
2023-04-16T13:19:01.725Z,12.28
2023-04-16T13:21:28.594Z,12.48
2023-04-16T13:23:59.127Z,12.63
2023-04-16T13:26:26.716Z,12.79
2023-04-16T13:28:53.612Z,12.93
2023-04-16T13:31:22.232Z,13.09
2023-04-16T13:33:50.720Z,13.12
2023-04-16T13:36:17.717Z,13.16
2023-04-16T13:38:44.560Z,13.21
2023-04-16T13:41:11.443Z,13.31
2023-04-16T13:43:38.360Z,13.33
2023-04-16T13:46:05.338Z,13.27
2023-04-16T13:48:32.778Z,13.15
2023-04-16T13:50:59.575Z,13.06
2023-04-16T13:53:26.652Z,13.14
2023-04-16T13:55:53.481Z,13.26
2023-04-16T13:58:23.337Z,13.36
2023-04-16T14:00:50.529Z,13.38
2023-04-16T14:03:17.459Z,13.55
2023-04-16T14:05:44.413Z,13.80
2023-04-16T14:08:13.050Z,13.90
2023-04-16T14:10:39.927Z,13.94
2023-04-16T14:13:06.800Z,13.80
2023-04-16T14:15:33.599Z,13.71
2023-04-16T14:18:01.373Z,13.56
2023-04-16T14:20:28.246Z,13.50
2023-04-16T14:22:55.011Z,13.47
2023-04-16T14:25:21.847Z,13.67
2023-04-16T14:27:48.960Z,13.97
2023-04-16T14:30:16.692Z,14.07
2023-04-16T14:32:43.576Z,14.12
2023-04-16T14:35:10.578Z,13.93
2023-04-16T14:37:38.916Z,13.72
2023-04-16T14:40:08.862Z,13.59
2023-04-16T14:42:37.319Z,13.66
2023-04-16T14:45:06.782Z,13.72
2023-04-16T14:47:37.945Z,13.80
2023-04-16T14:50:06.255Z,13.82
2023-04-16T14:52:33.194Z,13.83
2023-04-16T14:55:00.014Z,13.89
2023-04-16T14:57:26.816Z,13.81
2023-04-16T14:59:53.624Z,13.74
2023-04-16T15:02:20.630Z,13.65
2023-04-16T15:04:47.750Z,13.58
2023-04-16T15:07:14.734Z,13.35
2023-04-16T15:09:41.575Z,13.18
2023-04-16T15:12:09.250Z,13.09
2023-04-16T15:14:36.325Z,13.00
2023-04-16T15:17:03.477Z,12.95
2023-04-16T15:19:30.392Z,12.94
2023-04-16T15:21:57.307Z,12.95
2023-04-16T15:24:24.641Z,12.97
2023-04-16T15:26:51.543Z,12.99
2023-04-16T15:29:18.354Z,13.00
2023-04-16T15:31:45.358Z,12.95
2023-04-16T15:34:13.269Z,12.85
2023-04-16T15:36:40.066Z,12.79
2023-04-16T15:39:06.894Z,12.69
2023-04-16T15:41:36.288Z,12.62
2023-04-16T15:44:03.841Z,12.63
2023-04-16T15:46:30.881Z,12.63
2023-04-16T15:48:57.745Z,12.64
2023-04-16T15:51:26.713Z,12.65
2023-04-16T15:53:53.597Z,12.58
2023-04-16T15:56:20.597Z,12.50
2023-04-16T15:58:47.733Z,12.47
2023-04-16T16:01:14.661Z,12.37
2023-04-16T16:03:41.676Z,12.26
2023-04-16T16:06:09.099Z,12.24
2023-04-16T16:08:37.759Z,12.26
2023-04-16T16:11:04.888Z,12.26
2023-04-16T16:13:31.758Z,12.21
2023-04-16T16:15:58.671Z,12.16
2023-04-16T16:18:25.559Z,12.14
2023-04-16T16:20:57.951Z,12.19
2023-04-16T16:23:25.883Z,12.32
2023-04-16T16:25:52.698Z,12.44
2023-04-16T16:28:20.558Z,12.51
2023-04-16T16:30:47.586Z,12.62
2023-04-16T16:33:14.668Z,12.67
2023-04-16T16:35:41.624Z,12.70
2023-04-16T16:38:08.462Z,12.71
2023-04-16T16:40:35.487Z,12.64
2023-04-16T16:43:02.836Z,12.57
2023-04-16T16:45:30.593Z,12.56
2023-04-16T16:47:59.037Z,12.55
2023-04-16T16:50:26.179Z,12.54
2023-04-16T16:52:53.016Z,12.51
2023-04-16T16:55:20.964Z,12.44
2023-04-16T16:57:47.751Z,12.35
2023-04-16T17:00:15.898Z,12.30
2023-04-16T17:02:43.262Z,12.28
2023-04-16T17:05:10.743Z,12.21
2023-04-16T17:07:37.900Z,12.20
2023-04-16T17:10:08.542Z,12.14
2023-04-16T17:12:35.701Z,12.01
2023-04-16T17:15:03.079Z,11.89
2023-04-16T17:17:30.921Z,11.79
2023-04-16T17:19:57.845Z,11.76
2023-04-16T17:22:24.742Z,11.77
2023-04-16T17:24:51.575Z,11.75
2023-04-16T17:27:18.429Z,11.77
2023-04-16T17:29:45.350Z,11.80
2023-04-16T17:32:12.228Z,11.77
2023-04-16T17:34:39.231Z,11.76
2023-04-16T17:37:06.116Z,11.72
2023-04-16T17:39:32.986Z,11.73
2023-04-16T17:42:01.290Z,11.80
2023-04-16T17:44:28.029Z,11.80
2023-04-16T17:46:54.977Z,11.78
2023-04-16T17:49:21.853Z,11.76
2023-04-16T17:51:49.170Z,11.72
2023-04-16T17:54:16.038Z,11.71
2023-04-16T17:56:42.944Z,11.71
2023-04-16T17:59:09.789Z,11.68
2023-04-16T18:01:36.736Z,11.67
2023-04-16T18:04:03.852Z,11.61
2023-04-16T18:06:30.990Z,11.56
2023-04-16T18:08:57.829Z,11.50
2023-04-16T18:11:24.666Z,11.40
2023-04-16T18:13:53.676Z,11.33
2023-04-16T18:16:20.784Z,11.28
2023-04-16T18:18:47.758Z,11.24
2023-04-16T18:21:14.657Z,11.24
2023-04-16T18:23:41.542Z,11.29
2023-04-16T18:26:09.275Z,11.28
2023-04-16T18:28:36.969Z,11.20
2023-04-16T18:31:06.596Z,11.14
2023-04-16T18:33:54.161Z,11.08
2023-04-16T18:36:21.126Z,11.02
2023-04-16T18:39:00.198Z,10.97
2023-04-16T18:41:28.257Z,10.92
2023-04-16T18:43:55.103Z,10.92
2023-04-16T18:46:22.061Z,10.95
2023-04-16T18:48:48.920Z,10.94
2023-04-16T18:51:16.590Z,10.96
2023-04-16T18:53:45.586Z,10.97
2023-04-16T18:56:12.978Z,10.99
2023-04-16T18:58:39.905Z,11.01
2023-04-16T19:01:11.144Z,11.00
2023-04-16T19:03:39.012Z,10.92
2023-04-16T19:06:06.606Z,10.83
2023-04-16T19:08:33.657Z,10.78
2023-04-16T19:11:00.587Z,10.74
2023-04-16T19:13:27.523Z,10.78
2023-04-16T19:16:02.055Z,10.80
2023-04-16T19:18:29.079Z,10.81
2023-04-16T19:21:02.283Z,10.76
2023-04-16T19:23:29.641Z,10.70
2023-04-16T19:25:57.154Z,10.64
2023-04-16T19:28:25.546Z,10.58
2023-04-16T19:30:53.818Z,10.49
2023-04-16T19:33:20.739Z,10.46
2023-04-16T19:35:47.772Z,10.43
2023-04-16T19:38:14.791Z,10.35
2023-04-16T19:40:46.310Z,10.34
2023-04-16T19:43:13.176Z,10.35
2023-04-16T19:45:45.197Z,10.32
2023-04-16T19:48:12.641Z,10.25
2023-04-16T19:50:41.365Z,10.20
2023-04-16T19:53:09.114Z,10.19
2023-04-16T19:55:36.510Z,10.15
2023-04-16T19:58:06.540Z,10.12
2023-04-16T20:00:43.120Z,10.14
2023-04-16T20:03:10.338Z,10.11
2023-04-16T20:05:37.172Z,10.08
2023-04-16T20:08:04.217Z,10.06
2023-04-16T20:10:31.592Z,10.02
2023-04-16T20:12:58.870Z,9.95
2023-04-16T20:15:25.962Z,9.91
2023-04-16T20:17:53.390Z,9.90
2023-04-16T20:20:22.770Z,9.84
2023-04-16T20:22:50.920Z,9.83
2023-04-16T20:25:21.595Z,9.84
2023-04-16T20:27:48.387Z,9.78
2023-04-16T20:30:15.439Z,9.71
2023-04-16T20:32:42.543Z,9.69
2023-04-16T20:35:11.371Z,9.66
2023-04-16T20:37:39.190Z,9.59
2023-04-16T20:40:10.861Z,9.60
2023-04-16T20:42:37.880Z,9.68
2023-04-16T20:45:05.614Z,9.72
2023-04-16T20:47:34.871Z,9.69
2023-04-16T20:50:02.858Z,9.60
2023-04-16T20:52:29.763Z,9.47
2023-04-16T20:54:56.573Z,9.33
2023-04-16T20:57:23.487Z,9.24
2023-04-16T20:59:50.431Z,9.19
2023-04-16T21:02:17.372Z,9.15
2023-04-16T21:04:44.544Z,9.13
2023-04-16T21:07:11.520Z,9.11
2023-04-16T21:09:38.336Z,9.07
2023-04-16T21:12:05.553Z,9.06
2023-04-16T21:14:32.365Z,9.04
2023-04-16T21:16:59.120Z,9.08
2023-04-16T21:19:25.920Z,9.11
2023-04-16T21:21:52.743Z,9.14
2023-04-16T21:24:19.551Z,9.11
2023-04-16T21:26:46.342Z,9.07
2023-04-16T21:29:13.311Z,9.06
2023-04-16T21:31:40.469Z,9.04
2023-04-16T21:34:07.350Z,9.00
2023-04-16T21:36:35.069Z,9.03
2023-04-16T21:39:02.109Z,9.03
2023-04-16T21:41:28.923Z,9.04
2023-04-16T21:43:55.756Z,9.03
2023-04-16T21:46:23.007Z,9.05
2023-04-16T21:48:49.934Z,8.98
2023-04-16T21:51:18.053Z,8.95
2023-04-16T21:53:45.001Z,8.94
2023-04-16T21:56:11.895Z,8.89
2023-04-16T21:58:38.724Z,8.84
2023-04-16T22:01:05.976Z,8.88
2023-04-16T22:03:34.394Z,8.88
2023-04-16T22:06:01.489Z,8.88
2023-04-16T22:08:30.125Z,8.84
2023-04-16T22:11:02.160Z,8.83
2023-04-16T22:13:32.452Z,8.86
2023-04-16T22:16:03.380Z,8.84
2023-04-16T22:18:33.702Z,8.83
2023-04-16T22:21:01.047Z,8.88
2023-04-16T22:23:27.878Z,8.90
2023-04-16T22:25:56.362Z,8.89
2023-04-16T22:28:23.612Z,8.88
2023-04-16T22:30:50.497Z,8.86
2023-04-16T22:33:17.388Z,8.86
2023-04-16T22:35:44.309Z,8.89
2023-04-16T22:38:11.207Z,8.93
2023-04-16T22:40:38.096Z,8.98
2023-04-16T22:43:05.296Z,9.00
2023-04-16T22:45:32.227Z,9.03
2023-04-16T22:47:59.145Z,9.02
2023-04-16T22:50:25.976Z,9.01
2023-04-16T22:52:52.866Z,9.03
2023-04-16T22:55:19.813Z,9.07
2023-04-16T22:57:47.497Z,9.10
2023-04-16T23:00:18.241Z,9.14
2023-04-16T23:02:45.696Z,9.14
2023-04-16T23:05:12.768Z,9.15
2023-04-16T23:07:39.632Z,9.14
2023-04-16T23:10:08.638Z,9.12
2023-04-16T23:12:39.202Z,9.13
2023-04-16T23:15:07.123Z,9.15
2023-04-16T23:17:35.017Z,9.14
2023-04-16T23:20:02.476Z,9.13
2023-04-16T23:22:29.534Z,9.14
2023-04-16T23:24:56.572Z,9.12
2023-04-16T23:27:23.475Z,9.15
2023-04-16T23:29:50.664Z,9.09
2023-04-16T23:32:17.565Z,9.04
2023-04-16T23:34:44.399Z,9.00
2023-04-16T23:37:11.344Z,9.00
2023-04-16T23:39:38.224Z,9.04
2023-04-16T23:42:05.108Z,9.03
2023-04-16T23:44:32.013Z,9.03
2023-04-16T23:46:59.228Z,8.98
2023-04-16T23:49:26.167Z,9.00
2023-04-16T23:51:53.027Z,8.97
2023-04-16T23:54:20.021Z,8.94
2023-04-16T23:56:46.935Z,8.93
2023-04-16T23:59:14.299Z,8.91
